createdAt,value
2022-09-12T00:01:03.689Z,4
2022-09-12T00:05:45.994Z,4
2022-09-12T00:10:27.303Z,4
2022-09-12T00:15:09.618Z,4
2022-09-12T00:19:51.826Z,4
2022-09-12T00:29:16.449Z,4
2022-09-12T00:33:58.658Z,4
2022-09-12T00:38:40.971Z,4
2022-09-12T00:43:23.284Z,4
2022-09-12T00:48:05.495Z,4
2022-09-12T00:52:47.810Z,4
2022-09-12T00:57:30.117Z,4
2022-09-12T01:02:12.328Z,4
2022-09-12T01:06:54.673Z,7
2022-09-12T01:11:35.958Z,7
2022-09-12T01:16:18.262Z,7
2022-09-12T01:21:00.473Z,7
2022-09-12T01:25:42.787Z,7
2022-09-12T01:30:25.103Z,4
2022-09-12T01:35:07.307Z,7
2022-09-12T01:39:49.621Z,3
2022-09-12T01:44:31.932Z,3
2022-09-12T01:49:14.155Z,3
2022-09-12T01:53:56.455Z,3
2022-09-12T01:58:38.765Z,3
2022-09-12T02:03:21.022Z,3
2022-09-12T02:08:03.291Z,7
2022-09-12T02:12:44.603Z,7
2022-09-12T02:17:26.919Z,3
2022-09-12T02:22:09.206Z,3
2022-09-12T02:26:51.430Z,3
2022-09-12T02:31:33.743Z,3
2022-09-12T02:36:15.959Z,3
2022-09-12T02:40:58.267Z,3
2022-09-12T02:45:40.594Z,3
2022-09-12T02:50:22.834Z,3
2022-09-12T02:55:05.103Z,3
2022-09-12T02:59:47.451Z,3
2022-09-12T03:04:29.627Z,3
2022-09-12T03:09:11.940Z,3
2022-09-12T03:13:53.246Z,3
2022-09-12T03:18:35.558Z,3
2022-09-12T03:23:17.780Z,3
2022-09-12T03:28:00.088Z,3
2022-09-12T03:32:42.415Z,3
2022-09-12T03:37:24.607Z,3
2022-09-12T03:42:06.919Z,3
2022-09-12T03:46:49.228Z,3
2022-09-12T03:51:31.438Z,3
2022-09-12T03:56:13.751Z,3
2022-09-12T04:00:56.059Z,12
2022-09-12T04:05:38.387Z,12
2022-09-12T04:10:20.586Z,12
2022-09-12T04:15:01.909Z,15
2022-09-12T04:19:44.208Z,20
2022-09-12T04:24:26.420Z,27
2022-09-12T04:29:08.727Z,63
2022-09-12T04:33:51.104Z,105
2022-09-12T04:38:33.272Z,182
2022-09-12T04:43:15.587Z,300
2022-09-12T04:47:57.929Z,475
2022-09-12T04:52:40.215Z,686
2022-09-12T04:57:22.401Z,930
2022-09-12T05:02:04.714Z,1180
2022-09-12T05:06:47.026Z,1443
2022-09-12T05:11:29.256Z,1711
2022-09-12T05:16:10.547Z,1964
2022-09-12T05:20:52.855Z,2235
2022-09-12T05:25:35.195Z,2532
2022-09-12T05:30:17.381Z,2784
2022-09-12T05:34:59.691Z,3010
2022-09-12T05:39:41.907Z,3195
2022-09-12T05:44:24.214Z,3462
2022-09-12T05:49:06.526Z,3750
2022-09-12T05:53:48.838Z,4088
2022-09-12T05:58:31.058Z,4135
2022-09-12T06:03:13.398Z,4270
2022-09-12T06:07:55.702Z,4430
2022-09-12T06:12:37.886Z,4564
2022-09-12T06:17:19.199Z,4690
2022-09-12T06:22:01.511Z,4819
2022-09-12T06:26:43.737Z,4964
2022-09-12T06:31:26.034Z,5127
2022-09-12T06:36:08.344Z,5287
2022-09-12T06:40:50.555Z,5497
2022-09-12T06:45:32.868Z,5630
2022-09-12T06:54:57.489Z,6053
2022-09-12T06:59:39.703Z,6326
2022-09-12T07:04:22.014Z,6564
2022-09-12T07:09:04.326Z,6792
2022-09-12T07:13:46.561Z,7039
2022-09-12T07:18:27.868Z,7276
2022-09-12T07:23:09.170Z,7610
2022-09-12T07:27:51.474Z,8009
2022-09-12T07:32:32.792Z,8308
2022-09-12T07:37:14.998Z,8649
2022-09-12T07:41:57.311Z,9051
2022-09-12T07:46:39.670Z,10061
2022-09-12T07:51:21.834Z,13639
2022-09-12T07:56:04.169Z,11566
2022-09-12T08:00:46.456Z,17003
2022-09-12T08:05:28.695Z,10552
2022-09-12T08:10:11.025Z,10645
2022-09-12T08:14:53.303Z,10728
2022-09-12T08:19:35.507Z,22578
2022-09-12T08:24:17.845Z,39409
2022-09-12T08:29:00.143Z,11795
2022-09-12T08:33:42.346Z,12153
2022-09-12T08:38:23.651Z,14444
2022-09-12T08:43:06.003Z,13221
2022-09-12T08:47:48.248Z,13786
2022-09-12T08:52:30.491Z,14386
2022-09-12T08:57:12.797Z,15309
2022-09-12T09:01:55.049Z,16128
2022-09-12T09:06:37.327Z,22984
2022-09-12T09:11:18.631Z,18180
2022-09-12T09:15:59.963Z,18037
2022-09-12T09:20:42.259Z,18320
2022-09-12T09:25:24.514Z,19189
2022-09-12T09:30:06.797Z,18706
2022-09-12T09:34:49.094Z,19916
2022-09-12T09:39:31.315Z,20078
2022-09-12T09:44:13.621Z,17938
2022-09-12T09:48:56.021Z,49132
2022-09-12T09:53:38.145Z,22425
2022-09-12T09:58:20.461Z,22990
2022-09-12T10:03:02.770Z,24689
2022-09-12T10:07:44.984Z,22381
2022-09-12T10:12:27.297Z,24252
2022-09-12T10:17:08.605Z,21080
2022-09-12T10:21:50.920Z,20235
2022-09-12T10:26:33.169Z,31627
2022-09-12T10:31:15.486Z,25407
2022-09-12T10:35:57.702Z,29576
2022-09-12T10:40:40.016Z,26499
2022-09-12T10:45:22.324Z,16338
2022-09-12T10:50:04.549Z,28440
2022-09-12T10:54:46.851Z,30237
2022-09-12T10:59:29.158Z,25098
2022-09-12T11:04:11.488Z,24259
2022-09-12T11:08:53.684Z,22438
2022-09-12T11:13:36.003Z,24734
2022-09-12T11:18:17.310Z,23074
2022-09-12T11:22:59.623Z,23427
2022-09-12T11:27:42.043Z,21422
2022-09-12T11:32:24.146Z,21220
2022-09-12T11:37:06.457Z,21128
2022-09-12T11:41:48.677Z,23342
2022-09-12T11:46:30.989Z,22160
2022-09-12T11:51:13.341Z,35505
2022-09-12T11:55:55.509Z,32679
2022-09-12T12:00:37.862Z,31789
2022-09-12T12:05:20.134Z,23205
2022-09-12T12:10:02.351Z,24622
2022-09-12T12:14:44.658Z,37273
2022-09-12T12:19:25.972Z,15796
2022-09-12T12:24:08.283Z,17163
2022-09-12T12:28:50.501Z,39936
2022-09-12T12:33:32.805Z,36492
2022-09-12T12:38:15.116Z,35782
2022-09-12T12:42:57.328Z,52230
2022-09-12T12:47:39.641Z,60000
2022-09-12T12:52:21.955Z,62934
2022-09-12T12:57:04.162Z,60860
2022-09-12T13:01:46.478Z,57666
2022-09-12T13:06:28.883Z,48961
2022-09-12T13:11:11.134Z,42674
2022-09-12T13:15:53.345Z,34268
2022-09-12T13:20:34.665Z,28500
2022-09-12T13:25:16.937Z,25788
2022-09-12T13:29:59.249Z,24560
2022-09-12T13:34:41.459Z,27107
2022-09-12T13:39:23.776Z,31617
2022-09-12T13:44:06.175Z,31875
2022-09-12T13:48:48.302Z,27131
2022-09-12T13:53:30.623Z,21429
2022-09-12T13:58:12.985Z,19294
2022-09-12T14:02:55.137Z,19892
2022-09-12T14:07:37.454Z,20897
2022-09-12T14:12:19.838Z,18439
2022-09-12T14:17:01.979Z,20749
2022-09-12T14:21:43.313Z,21398
2022-09-12T14:26:25.598Z,21879
2022-09-12T14:31:07.808Z,21786
2022-09-12T14:35:50.173Z,16606
2022-09-12T14:40:32.436Z,15621
2022-09-12T14:45:14.670Z,16134
2022-09-12T14:49:56.957Z,14747
2022-09-12T14:54:39.291Z,13222
2022-09-12T14:59:21.485Z,14423
2022-09-12T15:04:03.797Z,15188
2022-09-12T15:08:46.128Z,14621
2022-09-12T15:13:28.321Z,16067
2022-09-12T15:18:10.736Z,18121
2022-09-12T15:22:51.940Z,18310
2022-09-12T15:27:34.255Z,18589
2022-09-12T15:32:16.494Z,17497
2022-09-12T15:36:58.780Z,17925
2022-09-12T15:41:41.092Z,20249
2022-09-12T15:46:23.357Z,19468
2022-09-12T15:51:05.558Z,17909
2022-09-12T15:55:47.871Z,18178
2022-09-12T16:00:30.195Z,17326
2022-09-12T16:05:12.393Z,15021
2022-09-12T16:09:54.707Z,13710
2022-09-12T16:14:37.034Z,12396
2022-09-12T16:19:19.235Z,12629
2022-09-12T16:24:00.540Z,10545
2022-09-12T16:28:42.856Z,8947
2022-09-12T16:33:25.166Z,9519
2022-09-12T16:38:07.375Z,7858
2022-09-12T16:42:49.691Z,5779
2022-09-12T16:47:32.073Z,5365
2022-09-12T16:52:14.217Z,4405
2022-09-12T16:56:56.530Z,3554
2022-09-12T17:01:38.843Z,3048
2022-09-12T17:06:21.076Z,2361
2022-09-12T17:11:03.413Z,1950
2022-09-12T17:15:45.676Z,1508
2022-09-12T17:20:27.887Z,1167
2022-09-12T17:25:09.196Z,856
2022-09-12T17:29:51.506Z,578
2022-09-12T17:34:33.820Z,382
2022-09-12T17:39:16.123Z,227
2022-09-12T17:43:58.349Z,118
2022-09-12T17:48:40.647Z,66
2022-09-12T17:53:22.864Z,39
2022-09-12T17:58:05.178Z,13
2022-09-12T18:02:47.487Z,12
2022-09-12T18:07:29.744Z,9
2022-09-12T18:12:12.054Z,9
2022-09-12T18:16:54.374Z,9
2022-09-12T18:21:36.610Z,9
2022-09-12T18:26:17.846Z,9
2022-09-12T18:31:00.167Z,9
2022-09-12T18:35:42.386Z,9
2022-09-12T18:40:24.687Z,9
2022-09-12T18:45:06.996Z,9
2022-09-12T18:54:31.517Z,9
2022-09-12T18:59:13.891Z,9
2022-09-12T19:03:56.041Z,9
2022-09-12T19:08:38.350Z,9
2022-09-12T19:13:20.670Z,9
2022-09-12T19:18:02.908Z,9
2022-09-12T19:22:45.184Z,9
2022-09-12T19:27:27.499Z,9
2022-09-12T19:32:09.706Z,9
2022-09-12T19:36:51.044Z,9
2022-09-12T19:41:33.351Z,9
2022-09-12T19:46:15.644Z,9
2022-09-12T19:50:57.866Z,9
2022-09-12T19:55:40.164Z,9
2022-09-12T20:00:22.473Z,9
2022-09-12T20:05:04.688Z,9
2022-09-12T20:09:46.995Z,9
2022-09-12T20:14:29.308Z,9
2022-09-12T20:19:11.538Z,9
2022-09-12T20:23:53.865Z,9
2022-09-12T20:28:36.196Z,9
2022-09-12T20:33:18.385Z,9
2022-09-12T20:37:59.688Z,9
2022-09-12T20:42:41.985Z,9
2022-09-12T20:47:24.299Z,9
2022-09-12T20:52:06.501Z,9
2022-09-12T20:56:48.809Z,9
2022-09-12T21:01:31.122Z,9
2022-09-12T21:06:13.388Z,9
2022-09-12T21:10:55.761Z,9
2022-09-12T21:15:38.011Z,9
2022-09-12T21:20:20.164Z,9
2022-09-12T21:25:02.491Z,9
2022-09-12T21:29:44.789Z,9
2022-09-12T21:34:27.004Z,9
2022-09-12T21:39:08.310Z,9
2022-09-12T21:43:50.626Z,9
2022-09-12T21:48:32.935Z,9
2022-09-12T21:53:15.193Z,9
2022-09-12T21:57:57.458Z,9
2022-09-12T22:02:39.799Z,9
2022-09-12T22:07:21.985Z,9
2022-09-12T22:12:04.320Z,9
2022-09-12T22:16:46.601Z,9
2022-09-12T22:21:28.844Z,9
2022-09-12T22:26:11.170Z,9
2022-09-12T22:30:53.434Z,9
2022-09-12T22:35:35.648Z,9
2022-09-12T22:40:16.961Z,9
2022-09-12T22:44:59.290Z,9
2022-09-12T22:49:41.656Z,4
2022-09-12T22:54:23.788Z,4
2022-09-12T22:59:06.102Z,4
2022-09-12T23:03:48.425Z,4
2022-09-12T23:08:30.634Z,4
2022-09-12T23:17:55.250Z,7
2022-09-12T23:22:37.458Z,4
2022-09-12T23:27:19.769Z,4
2022-09-12T23:32:02.082Z,9
2022-09-12T23:36:44.313Z,9
2022-09-12T23:41:25.603Z,9
2022-09-12T23:46:07.914Z,9
2022-09-12T23:50:50.227Z,4
2022-09-12T23:55:32.457Z,4
